Time;durP1;ratioP1;P1;durP2;ratioP2;P2;SDS_P1;SDS_P2;PMS_P1;PMS_P2;Temp;Humidity;BMP_temperature;BMP_pressure;BME280_temperature;BME280_humidity;BME280_pressure;Samples;Min_cycle;Max_cycle;Signal;HPM_P1;HPM_P2
2022/10/29 00:01:26;;;;;;;0.20;0.20;;;13.00;99.90;;;;;;4828387;29;20108;-87
2022/10/29 00:03:52;;;;;;;1.10;0.63;;;12.90;99.90;;;;;;4821177;29;20493;-87
2022/10/29 00:06:17;;;;;;;0.10;0.10;;;13.00;99.90;;;;;;4824228;29;20053;-87
2022/10/29 00:08:43;;;;;;;0.20;0.20;;;12.90;99.90;;;;;;4827570;29;20417;-87
2022/10/29 00:11:15;;;;;;;0.32;0.30;;;13.00;99.90;;;;;;4827819;29;20557;-88
2022/10/29 00:13:42;;;;;;;0.10;0.10;;;12.90;99.90;;;;;;4840133;29;20045;-87
2022/10/29 00:16:09;;;;;;;;;;;12.90;99.90;;;;;;4828328;29;20052;-88
2022/10/29 00:18:36;;;;;;;0.20;0.20;;;12.90;99.90;;;;;;4825825;29;19924;-87
2022/10/29 00:21:03;;;;;;;0.28;0.20;;;12.90;99.90;;;;;;4826766;29;20060;-87
2022/10/29 00:23:29;;;;;;;0.15;0.15;;;12.90;99.90;;;;;;4842504;29;20049;-86
2022/10/29 00:25:58;;;;;;;0.00;0.00;;;12.90;99.90;;;;;;4829076;29;20066;-87
2022/10/29 00:28:27;;;;;;;0.10;0.10;;;13.00;99.90;;;;;;4825061;29;20105;-87
2022/10/29 00:30:53;;;;;;;0.22;0.17;;;12.80;99.90;;;;;;4826963;29;20045;-87
2022/10/29 00:33:19;;;;;;;0.10;0.10;;;12.80;99.90;;;;;;4843155;29;20534;-87
2022/10/29 00:36:10;;;;;;;0.10;0.10;;;12.80;99.90;;;;;;4827578;29;20078;-87
2022/10/29 00:38:39;;;;;;;0.15;0.15;;;12.70;99.90;;;;;;4826036;29;20041;-86
2022/10/29 00:41:06;;;;;;;0.20;0.20;;;12.60;99.90;;;;;;4825554;29;20042;-87
2022/10/29 00:43:36;;;;;;;0.85;0.25;;;12.80;99.90;;;;;;4842389;29;20049;-86
2022/10/29 00:46:07;;;;;;;0.38;0.20;;;12.70;99.90;;;;;;4832241;29;20052;-87
2022/10/29 00:48:42;;;;;;;0.20;0.20;;;12.60;99.90;;;;;;4826177;29;20550;-87
2022/10/29 00:51:10;;;;;;;0.20;0.10;;;12.80;99.90;;;;;;4827965;29;20042;-87
2022/10/29 00:53:40;;;;;;;0.28;0.20;;;12.70;99.90;;;;;;4827623;29;20064;-86
2022/10/29 00:56:06;;;;;;;0.00;0.00;;;12.70;99.90;;;;;;4826930;29;20144;-87
2022/10/29 00:58:35;;;;;;;0.32;0.20;;;12.60;99.90;;;;;;4829742;29;20061;-87
2022/10/29 01:01:03;;;;;;;0.13;0.13;;;12.60;99.90;;;;;;4828068;29;20109;-87
2022/10/29 01:03:29;;;;;;;0.20;0.10;;;12.60;99.90;;;;;;4828227;29;20053;-86
2022/10/29 01:05:55;;;;;;;0.10;0.10;;;13.70;99.90;;;;;;4812431;29;20080;-87
2022/10/29 01:08:22;;;;;;;0.00;0.00;;;12.50;99.90;;;;;;4825916;29;20164;-87
2022/10/29 01:11:11;;;;;;;0.52;0.20;;;12.40;99.90;;;;;;4826699;29;20045;-87
2022/10/29 01:14:05;;;;;;;0.08;0.08;;;12.40;99.90;;;;;;4838856;29;20442;-87
2022/10/29 01:17:06;;;;;;;0.08;0.00;;;12.20;99.90;;;;;;4825406;29;20045;-87
2022/10/29 01:20:03;;;;;;;0.10;0.10;;;12.20;99.90;;;;;;4818214;29;20053;-87
2022/10/29 01:22:28;;;;;;;0.30;0.20;;;12.10;99.90;;;;;;4827464;29;20050;-87
2022/10/29 01:25:20;;;;;;;0.57;0.30;;;12.10;99.90;;;;;;4828141;29;20056;-87
2022/10/29 01:28:07;;;;;;;0.22;0.10;;;12.00;99.90;;;;;;4833121;29;20046;-87
2022/10/29 01:31:10;;;;;;;0.20;0.20;;;12.00;99.90;;;;;;4825306;29;20064;-87
2022/10/29 01:33:50;;;;;;;0.38;0.38;;;11.90;99.90;;;;;;4836682;29;20076;-87
2022/10/29 01:37:10;;;;;;;0.20;0.20;;;11.80;99.90;;;;;;4824367;29;20046;-87
2022/10/29 01:39:43;;;;;;;0.28;0.28;;;11.90;99.90;;;;;;4787332;29;20068;-86
2022/10/29 01:42:31;;;;;;;0.30;0.10;;;11.80;99.90;;;;;;4827799;29;20046;-87
2022/10/29 01:45:38;;;;;;;0.28;0.13;;;11.70;99.90;;;;;;4823560;29;20441;-86
2022/10/29 01:48:18;;;;;;;0.10;0.10;;;11.70;99.90;;;;;;4827043;29;20516;-87
2022/10/29 01:50:48;;;;;;;0.10;0.10;;;11.70;99.90;;;;;;4825975;29;20086;-87
2022/10/29 01:53:16;;;;;;;0.10;0.10;;;11.00;99.90;;;;;;4827219;29;20050;-87
2022/10/29 01:55:41;;;;;;;0.03;0.03;;;11.60;99.90;;;;;;4839862;29;20054;-87
2022/10/29 01:58:12;;;;;;;0.20;0.20;;;11.60;99.90;;;;;;4827186;29;20045;-87
2022/10/29 02:01:08;;;;;;;0.20;0.13;;;11.50;99.90;;;;;;4824922;29;20043;-87
2022/10/29 02:03:52;;;;;;;0.90;0.45;;;12.50;99.90;;;;;;4830686;29;20093;-87
2022/10/29 02:06:31;;;;;;;0.08;0.08;;;11.50;99.90;;;;;;4826496;29;20057;-87
2022/10/29 02:09:23;;;;;;;0.73;0.28;;;11.50;99.90;;;;;;4830116;29;20057;-87
2022/10/29 02:12:12;;;;;;;0.28;0.17;;;11.40;99.90;;;;;;4825783;29;20064;-86
2022/10/29 02:14:45;;;;;;;0.00;0.00;;;11.30;99.90;;;;;;4824972;29;20050;-87
2022/10/29 02:17:10;;;;;;;0.80;0.00;;;11.30;99.90;;;;;;4826916;29;20045;-87
2022/10/29 02:19:36;;;;;;;1.30;0.10;;;11.20;99.90;;;;;;4809550;29;20053;-87
2022/10/29 02:22:02;;;;;;;0.20;0.03;;;11.10;99.90;;;;;;4825959;29;20046;-86
2022/10/29 02:24:28;;;;;;;0.08;0.08;;;11.10;99.90;;;;;;4810545;29;20045;-87
2022/10/29 02:26:54;;;;;;;2.53;0.40;;;11.20;99.90;;;;;;4825982;29;20452;-88
2022/10/29 02:29:20;;;;;;;0.10;0.03;;;11.10;99.90;;;;;;4811679;29;20049;-87
2022/10/29 02:31:45;;;;;;;0.03;0.00;;;11.10;99.90;;;;;;4825291;29;20141;-87
2022/10/29 02:34:11;;;;;;;0.00;0.00;;;11.10;99.90;;;;;;4841954;29;20045;-87
2022/10/29 02:36:37;;;;;;;0.30;0.22;;;11.10;99.90;;;;;;4826400;29;20056;-87
2022/10/29 02:39:05;;;;;;;0.00;0.00;;;11.00;99.90;;;;;;4824813;29;20065;-88
2022/10/29 02:41:31;;;;;;;0.15;0.15;;;11.10;99.90;;;;;;4837514;29;20561;-87
2022/10/29 02:43:57;;;;;;;0.43;0.10;;;10.50;99.90;;;;;;4826592;29;20049;-87
2022/10/29 02:46:23;;;;;;;0.43;0.10;;;10.10;99.90;;;;;;4826604;29;20042;-87
2022/10/29 02:48:52;;;;;;;0.30;0.20;;;11.10;99.90;;;;;;4825066;29;20147;-87
2022/10/29 02:51:18;;;;;;;0.20;0.20;;;11.10;99.90;;;;;;4825067;29;20132;-87
2022/10/29 02:53:46;;;;;;;0.10;0.10;;;11.10;99.90;;;;;;4808230;29;20193;-86
2022/10/29 02:56:12;;;;;;;0.15;0.15;;;11.10;99.90;;;;;;4811143;29;20073;-87
2022/10/29 02:58:38;;;;;;;0.20;0.20;;;11.10;99.90;;;;;;4824819;29;20489;-88
2022/10/29 03:01:06;;;;;;;0.23;0.13;;;11.00;99.90;;;;;;4811552;29;20045;-87
2022/10/29 03:03:32;;;;;;;0.10;0.10;;;9.90;99.90;;;;;;4825716;29;20049;-88
2022/10/29 03:05:57;;;;;;;0.20;0.20;;;11.10;99.90;;;;;;4823246;29;20081;-87
2022/10/29 03:08:23;;;;;;;0.20;0.20;;;11.10;99.90;;;;;;4808798;29;20061;-87
2022/10/29 03:10:49;;;;;;;0.20;0.20;;;11.10;99.90;;;;;;4838851;29;20048;-87
2022/10/29 03:13:15;;;;;;;0.65;0.08;;;11.20;99.90;;;;;;4826460;29;20137;-87
2022/10/29 03:15:46;;;;;;;0.00;0.00;;;11.10;99.90;;;;;;4841286;29;20515;-87
2022/10/29 03:18:12;;;;;;;0.47;0.35;;;11.20;99.90;;;;;;4824095;29;20076;-87
2022/10/29 03:20:38;;;;;;;0.13;0.13;;;11.10;99.90;;;;;;4828990;29;20137;-87
2022/10/29 03:23:07;;;;;;;0.28;0.20;;;11.10;99.90;;;;;;4828802;29;20072;-87
2022/10/29 03:25:32;;;;;;;0.17;0.10;;;11.10;99.90;;;;;;4813650;29;20041;-88
2022/10/29 03:27:58;;;;;;;0.10;0.10;;;11.10;99.90;;;;;;4829497;29;20041;-88
2022/10/29 03:30:24;;;;;;;0.10;0.10;;;11.10;99.90;;;;;;4825706;29;22042;-87
2022/10/29 03:32:53;;;;;;;1.33;0.50;;;11.10;99.90;;;;;;4811214;29;20817;-87
2022/10/29 03:35:18;;;;;;;0.20;0.20;;;11.10;99.90;;;;;;4829141;29;20073;-87
2022/10/29 03:37:47;;;;;;;0.23;0.20;;;11.10;99.90;;;;;;4825761;29;20086;-87
2022/10/29 03:40:13;;;;;;;0.45;0.30;;;11.20;99.90;;;;;;4827280;29;20037;-87
2022/10/29 03:42:38;;;;;;;0.40;0.40;;;11.30;99.90;;;;;;4810817;29;20121;-87
2022/10/29 03:45:05;;;;;;;0.10;0.10;;;11.20;99.90;;;;;;4812930;29;20060;-87
2022/10/29 03:47:34;;;;;;;0.40;0.40;;;11.70;99.90;;;;;;4828554;29;20053;-87
2022/10/29 03:50:00;;;;;;;0.40;0.32;;;11.40;99.90;;;;;;4827055;29;20053;-87
2022/10/29 03:52:26;;;;;;;0.47;0.30;;;11.40;99.90;;;;;;4828143;29;20052;-87
2022/10/29 03:54:55;;;;;;;0.63;0.30;;;11.40;99.90;;;;;;4827457;29;20425;-87
2022/10/29 03:57:23;;;;;;;1.30;0.32;;;11.50;99.90;;;;;;4813598;29;20049;-87
2022/10/29 03:59:52;;;;;;;0.57;0.10;;;11.90;99.90;;;;;;4843025;29;20125;-87
2022/10/29 04:02:18;;;;;;;0.82;0.20;;;11.50;99.90;;;;;;4813879;29;20153;-87
2022/10/29 04:04:44;;;;;;;0.20;0.20;;;11.50;99.90;;;;;;4842933;29;20041;-87
2022/10/29 04:07:12;;;;;;;0.97;0.20;;;11.50;99.90;;;;;;4827016;29;20520;-88
2022/10/29 04:09:45;;;;;;;1.48;0.68;;;11.60;99.90;;;;;;4840977;29;20486;-88
2022/10/29 04:12:11;;;;;;;0.32;0.30;;;11.60;99.90;;;;;;4828192;29;20049;-87
2022/10/29 04:14:37;;;;;;;0.73;0.47;;;11.60;99.90;;;;;;4828424;29;20061;-87
2022/10/29 04:17:03;;;;;;;0.90;0.43;;;11.60;99.90;;;;;;4825244;29;20118;-87
2022/10/29 04:19:28;;;;;;;0.20;0.20;;;11.70;99.90;;;;;;4827407;29;20405;-87
2022/10/29 04:21:54;;;;;;;0.13;0.13;;;11.60;99.90;;;;;;4827156;29;20165;-87
2022/10/29 04:24:20;;;;;;;0.27;0.20;;;11.70;99.90;;;;;;4828395;29;20082;-87
2022/10/29 04:26:48;;;;;;;0.20;0.20;;;11.60;99.90;;;;;;4828185;29;20150;-87
2022/10/29 04:29:14;;;;;;;0.28;0.20;;;11.70;99.90;;;;;;4828139;29;20053;-87
2022/10/29 04:31:39;;;;;;;0.53;0.40;;;11.70;99.90;;;;;;4842533;29;20461;-87
2022/10/29 04:34:07;;;;;;;0.50;0.30;;;11.70;99.90;;;;;;4812897;29;20473;-87
2022/10/29 04:36:33;;;;;;;0.30;0.30;;;11.80;99.90;;;;;;4840317;29;20310;-87
2022/10/29 04:39:01;;;;;;;1.00;0.40;;;11.00;99.90;;;;;;4810756;29;20104;-87
2022/10/29 04:41:27;;;;;;;0.60;0.38;;;11.80;99.90;;;;;;4794637;29;20458;-88
2022/10/29 04:43:53;;;;;;;0.87;0.37;;;11.80;99.90;;;;;;4826387;29;20053;-88
2022/10/29 04:46:19;;;;;;;0.20;0.20;;;11.80;99.90;;;;;;4842691;29;20041;-88
2022/10/29 04:48:45;;;;;;;0.50;0.50;;;11.80;99.90;;;;;;4827383;29;20061;-89
2022/10/29 04:51:22;;;;;;;1.40;0.40;;;11.90;99.90;;;;;;4825261;29;20311;-88
2022/10/29 04:53:48;;;;;;;0.52;0.52;;;11.80;99.90;;;;;;4826619;29;20041;-89
2022/10/29 04:56:14;;;;;;;0.30;0.20;;;11.90;99.90;;;;;;4828117;29;20072;-88
2022/10/29 04:58:40;;;;;;;0.40;0.40;;;11.80;99.90;;;;;;4828189;29;20049;-88
2022/10/29 05:01:05;;;;;;;0.20;0.20;;;12.00;99.90;;;;;;4825553;29;20057;-89
2022/10/29 05:03:34;;;;;;;0.63;0.30;;;11.90;99.90;;;;;;4827996;29;20068;-89
2022/10/29 05:06:08;;;;;;;0.60;0.32;;;11.90;99.90;;;;;;4825721;29;20310;-88
2022/10/29 05:08:36;;;;;;;1.08;0.50;;;11.90;99.90;;;;;;4827731;29;20064;-88
2022/10/29 05:11:06;;;;;;;0.10;0.10;;;11.90;99.90;;;;;;4825996;29;20049;-88
2022/10/29 05:13:32;;;;;;;0.22;0.22;;;12.10;99.90;;;;;;4827827;29;20080;-88
2022/10/29 05:16:08;;;;;;;0.20;0.20;;;12.00;99.90;;;;;;4813001;29;20060;-88
2022/10/29 05:18:36;;;;;;;1.65;0.35;;;11.90;99.90;;;;;;4812530;29;20085;-88
2022/10/29 05:21:04;;;;;;;0.30;0.30;;;11.60;99.90;;;;;;4825217;29;20049;-88
2022/10/29 05:23:30;;;;;;;0.68;0.22;;;12.00;99.90;;;;;;4827016;29;20071;-88
2022/10/29 05:25:59;;;;;;;0.20;0.20;;;12.00;99.90;;;;;;4842123;29;20053;-88
2022/10/29 05:28:30;;;;;;;0.28;0.20;;;12.30;99.90;;;;;;4827519;29;20072;-88
2022/10/29 05:31:00;;;;;;;0.45;0.25;;;11.90;99.90;;;;;;4839267;29;20136;-88
2022/10/29 05:33:26;;;;;;;0.38;0.20;;;12.00;99.90;;;;;;4827628;29;20104;-88
2022/10/29 05:36:00;;;;;;;0.83;0.33;;;11.90;99.90;;;;;;4825986;29;20049;-88
2022/10/29 05:38:26;;;;;;;0.25;0.25;;;11.90;99.90;;;;;;4824767;29;20042;-87
2022/10/29 05:40:59;;;;;;;0.95;0.40;;;11.90;99.90;;;;;;4825492;29;20052;-89
2022/10/29 05:43:26;;;;;;;0.57;0.40;;;11.90;99.90;;;;;;4838475;29;20564;-88
2022/10/29 05:45:52;;;;;;;0.10;0.10;;;11.90;99.90;;;;;;4826748;29;20116;-89
2022/10/29 05:48:18;;;;;;;0.93;0.30;;;11.90;99.90;;;;;;4826193;29;20069;-88
2022/10/29 05:50:46;;;;;;;0.73;0.33;;;11.00;99.90;;;;;;4855231;29;20132;-85
2022/10/29 05:53:13;;;;;;;0.32;0.30;;;11.90;99.90;;;;;;4826627;29;20037;-90
2022/10/29 05:55:40;;;;;;;0.32;0.32;;;11.90;99.90;;;;;;4827051;29;20132;-85
2022/10/29 05:58:08;;;;;;;;;;;11.90;99.90;;;;;;4825288;29;20054;-90
2022/10/29 06:00:37;;;;;;;1.35;0.50;;;12.00;99.90;;;;;;4842339;29;20390;-88
2022/10/29 06:03:03;;;;;;;0.38;0.30;;;11.90;99.90;;;;;;4825771;29;20128;-85
2022/10/29 06:05:29;;;;;;;0.20;0.20;;;12.00;99.90;;;;;;4841140;29;20046;-88
2022/10/29 06:07:59;;;;;;;0.28;0.28;;;12.00;99.90;;;;;;4826038;29;20049;-91
2022/10/29 06:10:28;;;;;;;0.17;0.15;;;12.10;99.90;;;;;;4827471;29;20045;-88
2022/10/29 06:13:09;;;;;;;;;;;;;;;;;;;;;
2022/10/29 06:15:35;;;;;;;0.75;0.20;;;12.10;99.90;;;;;;4843080;29;20052;-91
2022/10/29 06:18:00;;;;;;;1.57;0.40;;;12.20;99.90;;;;;;4843879;29;20045;-88
2022/10/29 06:20:29;;;;;;;0.97;0.57;;;12.10;99.90;;;;;;4825451;29;20404;-89
2022/10/29 06:22:59;;;;;;;0.38;0.20;;;12.10;99.90;;;;;;4822896;29;20062;-89
2022/10/29 06:25:25;;;;;;;0.57;0.57;;;11.40;99.90;;;;;;4824043;29;20118;-86
2022/10/29 06:28:03;;;;;;;0.40;0.40;;;12.20;99.90;;;;;;4812092;29;20124;-93
2022/10/29 06:30:35;;;;;;;;;;;12.20;99.90;;;;;;4841735;29;20102;-87
2022/10/29 06:33:02;;;;;;;0.63;0.55;;;12.20;99.90;;;;;;4823900;29;19924;-85
2022/10/29 06:35:28;;;;;;;0.60;0.45;;;12.20;99.90;;;;;;4823690;29;20117;-84
2022/10/29 06:37:53;;;;;;;0.47;0.30;;;12.20;99.90;;;;;;4826651;29;20201;-88
2022/10/29 06:40:19;;;;;;;1.23;0.73;;;12.10;99.90;;;;;;4826572;29;20545;-85
2022/10/29 06:42:45;;;;;;;0.47;0.43;;;12.20;99.90;;;;;;4826831;29;20368;-85
2022/10/29 06:45:11;;;;;;;0.73;0.60;;;12.20;99.90;;;;;;4840925;29;20057;-88
2022/10/29 06:47:39;;;;;;;0.50;0.50;;;12.20;99.90;;;;;;4826551;29;20522;-87
2022/10/29 06:50:05;;;;;;;0.55;0.38;;;12.20;99.90;;;;;;4826085;29;20049;-91
2022/10/29 06:52:31;;;;;;;1.05;0.60;;;12.20;99.90;;;;;;4842746;29;20378;-89
2022/10/29 06:54:56;;;;;;;0.73;0.57;;;12.20;99.90;;;;;;4830582;29;20056;-88
2022/10/29 06:57:23;;;;;;;0.77;0.23;;;12.10;99.90;;;;;;4830101;29;20493;-87
2022/10/29 06:59:49;;;;;;;;;;;12.10;99.90;;;;;;4844051;29;20049;-90
2022/10/29 07:02:20;;;;;;;0.60;0.38;;;13.40;99.90;;;;;;4828118;29;19975;-89
2022/10/29 07:04:45;;;;;;;1.90;0.50;;;12.10;99.90;;;;;;4828959;29;20045;-88
2022/10/29 07:07:11;;;;;;;0.53;0.40;;;12.10;99.90;;;;;;4814428;29;20121;-91
2022/10/29 07:09:46;;;;;;;1.00;0.67;;;11.80;99.90;;;;;;4827932;29;20045;-90
2022/10/29 07:12:14;;;;;;;0.50;0.50;;;12.20;99.90;;;;;;4828793;29;20081;-91
2022/10/29 07:14:42;;;;;;;0.95;0.43;;;12.20;99.90;;;;;;4827997;29;20060;-88
2022/10/29 07:17:08;;;;;;;0.43;0.43;;;12.20;99.90;;;;;;4826104;29;20046;-90
2022/10/29 07:19:36;;;;;;;0.60;0.47;;;12.20;99.90;;;;;;4830400;29;20381;-92
2022/10/29 07:22:02;;;;;;;1.05;0.57;;;12.30;99.90;;;;;;4828275;29;20069;-93
2022/10/29 07:24:28;;;;;;;1.20;0.70;;;12.20;99.90;;;;;;4825096;29;20054;-89
2022/10/29 07:26:56;;;;;;;1.87;0.30;;;12.30;99.90;;;;;;4845743;29;20511;-89
2022/10/29 07:29:24;;;;;;;0.40;0.30;;;12.30;99.90;;;;;;4844470;29;20666;-89
2022/10/29 07:31:50;;;;;;;1.58;0.75;;;12.30;99.90;;;;;;4814837;29;20052;-90
2022/10/29 07:34:16;;;;;;;1.92;0.77;;;12.30;99.90;;;;;;4828968;29;20053;-92
2022/10/29 07:36:46;;;;;;;3.13;0.40;;;12.30;99.90;;;;;;4829421;29;20050;-89
2022/10/29 07:39:12;;;;;;;1.77;0.93;;;12.30;99.90;;;;;;4827270;29;20057;-90
2022/10/29 07:41:38;;;;;;;1.40;0.70;;;12.20;99.90;;;;;;4812964;29;20046;-90
2022/10/29 07:44:04;;;;;;;1.17;0.70;;;12.20;99.90;;;;;;4827958;29;20114;-95
2022/10/29 07:46:32;;;;;;;0.57;0.40;;;12.60;99.90;;;;;;4843821;29;20065;-93
2022/10/29 07:49:00;;;;;;;2.25;1.00;;;12.20;99.90;;;;;;4828575;29;20096;-93
2022/10/29 07:51:28;;;;;;;0.73;0.60;;;12.20;99.90;;;;;;4828297;29;20139;-91
2022/10/29 07:53:54;;;;;;;1.15;0.93;;;12.20;99.90;;;;;;4812847;29;20049;-91
2022/10/29 07:56:20;;;;;;;0.40;0.40;;;12.30;99.90;;;;;;4829155;29;20489;-92
2022/10/29 07:58:46;;;;;;;0.43;0.37;;;11.90;99.90;;;;;;4828944;29;20557;-91
2022/10/29 08:01:11;;;;;;;0.80;0.50;;;12.30;99.90;;;;;;4826778;29;20041;-90
2022/10/29 08:03:37;;;;;;;0.40;0.40;;;12.30;99.90;;;;;;4827774;29;22135;-88
2022/10/29 08:06:03;;;;;;;2.00;0.63;;;12.40;99.90;;;;;;4828702;29;20306;-85
2022/10/29 08:08:29;;;;;;;1.75;0.52;;;12.30;99.90;;;;;;4827627;29;20049;-86
2022/10/29 08:11:00;;;;;;;0.40;0.40;;;12.40;99.90;;;;;;4811504;29;20053;-87
2022/10/29 08:13:26;;;;;;;1.10;0.40;;;12.50;99.90;;;;;;4842116;29;20137;-87
2022/10/29 08:15:52;;;;;;;0.28;0.28;;;12.50;99.90;;;;;;4826400;29;20046;-86
2022/10/29 08:18:18;;;;;;;1.13;0.70;;;12.60;99.90;;;;;;4810509;29;20050;-83
2022/10/29 08:20:44;;;;;;;0.55;0.55;;;12.50;99.90;;;;;;4829069;29;20071;-84
2022/10/29 08:23:10;;;;;;;0.52;0.40;;;12.60;99.90;;;;;;4811783;29;20136;-87
2022/10/29 08:25:40;;;;;;;0.60;0.40;;;12.60;99.90;;;;;;4827613;29;20758;-85
2022/10/29 08:28:08;;;;;;;0.30;0.30;;;12.70;99.90;;;;;;4839915;29;20124;-85
2022/10/29 08:30:34;;;;;;;0.43;0.43;;;12.70;99.90;;;;;;4842414;29;20053;-85
2022/10/29 08:33:00;;;;;;;1.50;0.70;;;12.70;99.90;;;;;;4811744;29;21793;-83
2022/10/29 08:35:26;;;;;;;1.30;0.60;;;12.80;99.90;;;;;;4826845;29;20052;-84
2022/10/29 08:37:52;;;;;;;0.30;0.15;;;12.80;99.90;;;;;;4827862;29;20072;-84
2022/10/29 08:40:47;;;;;;;0.50;0.50;;;12.90;99.90;;;;;;4826789;29;20493;-85
2022/10/29 08:43:40;;;;;;;0.40;0.40;;;12.90;99.90;;;;;;4815313;29;20404;-85
2022/10/29 08:46:29;;;;;;;0.10;0.10;;;13.00;99.90;;;;;;4825316;29;20382;-84
2022/10/29 08:49:00;;;;;;;0.82;0.70;;;13.00;99.90;;;;;;4838492;29;20145;-89
2022/10/29 08:51:43;;;;;;;0.68;0.35;;;13.00;99.90;;;;;;4828031;29;20041;-84
2022/10/29 08:54:14;;;;;;;0.35;0.30;;;13.10;99.90;;;;;;4858068;29;20457;-84
2022/10/29 08:56:49;;;;;;;0.38;0.38;;;13.30;99.90;;;;;;4824993;29;20049;-86
2022/10/29 08:59:23;;;;;;;0.35;0.20;;;13.40;99.90;;;;;;4841808;29;20074;-85
2022/10/29 09:01:51;;;;;;;0.60;0.50;;;13.40;99.90;;;;;;4843262;29;20052;-83
2022/10/29 09:04:32;;;;;;;1.10;0.70;;;13.50;99.90;;;;;;4824204;29;20045;-85
2022/10/29 09:07:14;;;;;;;1.40;0.40;;;13.60;99.90;;;;;;4827904;29;20121;-83
2022/10/29 09:09:45;;;;;;;1.27;0.60;;;13.60;99.90;;;;;;4827338;29;20066;-84
2022/10/29 09:12:20;;;;;;;0.77;0.30;;;13.70;99.90;;;;;;4837973;29;20420;-87
2022/10/29 09:15:13;;;;;;;0.80;0.55;;;13.70;99.90;;;;;;4842045;29;20053;-85
2022/10/29 09:17:46;;;;;;;0.50;0.30;;;13.70;99.90;;;;;;4855484;29;20193;-82
2022/10/29 09:20:32;;;;;;;0.22;0.22;;;13.80;99.90;;;;;;4841361;29;20049;-82
2022/10/29 09:23:15;;;;;;;0.90;0.50;;;13.80;99.90;;;;;;4840230;29;20053;-82
2022/10/29 09:25:49;;;;;;;1.48;0.30;;;13.80;99.90;;;;;;4825742;29;20053;-82
2022/10/29 09:28:39;;;;;;;1.23;0.80;;;13.90;99.90;;;;;;4824964;29;20094;-83
2022/10/29 09:31:05;;;;;;;0.82;0.57;;;13.90;99.90;;;;;;4838631;29;20109;-82
2022/10/29 09:33:31;;;;;;;0.53;0.30;;;13.90;99.90;;;;;;4841709;29;20050;-82
2022/10/29 09:35:58;;;;;;;0.38;0.38;;;13.90;99.90;;;;;;4827627;29;20122;-81
2022/10/29 09:38:52;;;;;;;0.75;0.73;;;13.90;99.90;;;;;;4826461;29;20092;-81
2022/10/29 09:41:20;;;;;;;0.55;0.45;;;13.90;99.90;;;;;;4840483;29;20041;-81
2022/10/29 09:43:55;;;;;;;0.32;0.32;;;14.00;99.90;;;;;;4827398;29;20056;-82
2022/10/29 09:46:48;;;;;;;1.02;0.40;;;14.10;99.90;;;;;;4840037;29;20045;-82
2022/10/29 09:49:23;;;;;;;0.55;0.50;;;14.10;99.90;;;;;;4828998;29;20534;-81
2022/10/29 09:52:00;;;;;;;0.73;0.70;;;14.20;99.90;;;;;;4827237;29;20521;-81
2022/10/29 09:54:29;;;;;;;0.85;0.50;;;14.20;99.90;;;;;;4826220;29;20091;-81
2022/10/29 09:56:57;;;;;;;0.30;0.30;;;14.10;99.90;;;;;;4827443;29;20046;-81
2022/10/29 09:59:35;;;;;;;1.50;0.30;;;14.40;99.90;;;;;;4826279;29;20073;-82
2022/10/29 10:02:03;;;;;;;0.57;0.50;;;14.60;99.90;;;;;;4825188;29;20106;-82
2022/10/29 10:04:39;;;;;;;1.17;0.57;;;14.70;99.90;;;;;;4810380;29;20072;-82
2022/10/29 10:07:16;;;;;;;1.77;0.60;;;14.80;99.90;;;;;;4827764;29;20061;-81
2022/10/29 10:09:51;;;;;;;1.27;0.55;;;14.80;99.90;;;;;;4827659;29;20060;-81
2022/10/29 10:12:19;;;;;;;0.47;0.47;;;14.90;99.90;;;;;;4827392;29;20072;-80
2022/10/29 10:14:46;;;;;;;0.40;0.35;;;14.90;99.90;;;;;;4824744;29;20096;-82
2022/10/29 10:17:13;;;;;;;0.95;0.35;;;15.00;99.90;;;;;;4825014;29;20061;-82
2022/10/29 10:19:45;;;;;;;0.60;0.30;;;15.10;99.90;;;;;;4810296;29;20077;-81
2022/10/29 10:22:23;;;;;;;0.95;0.63;;;15.20;99.90;;;;;;4840262;29;20038;-80
2022/10/29 10:24:48;;;;;;;0.47;0.47;;;15.20;99.90;;;;;;4826313;29;20052;-82
2022/10/29 10:27:17;;;;;;;0.95;0.90;;;15.20;99.90;;;;;;4821946;29;20049;-84
2022/10/29 10:30:03;;;;;;;0.50;0.50;;;15.40;99.90;;;;;;4827389;29;20063;-82
2022/10/29 10:32:30;;;;;;;1.17;0.50;;;15.40;99.90;;;;;;4843131;29;20082;-82
2022/10/29 10:34:55;;;;;;;0.63;0.52;;;15.60;99.90;;;;;;4842991;29;20058;-81
2022/10/29 10:37:22;;;;;;;0.53;0.37;;;15.90;99.90;;;;;;4819314;29;20049;-82
2022/10/29 10:39:59;;;;;;;0.90;0.50;;;16.20;99.90;;;;;;4825436;29;20041;-82
2022/10/29 10:42:41;;;;;;;1.13;0.50;;;16.20;99.90;;;;;;4838318;29;20057;-82
2022/10/29 10:45:16;;;;;;;0.55;0.50;;;16.40;99.90;;;;;;4821561;29;20056;-84
2022/10/29 10:47:54;;;;;;;0.30;0.30;;;16.60;99.90;;;;;;4842481;29;20109;-82
2022/10/29 10:50:21;;;;;;;0.60;0.30;;;17.00;99.90;;;;;;4829986;29;20064;-82
2022/10/29 10:52:48;;;;;;;1.00;0.50;;;17.10;99.90;;;;;;4828902;29;20081;-82
2022/10/29 10:55:24;;;;;;;1.25;0.60;;;17.10;99.90;;;;;;4829166;29;20057;-85
2022/10/29 10:58:17;;;;;;;1.55;1.10;;;17.20;99.90;;;;;;4829070;29;20057;-87
2022/10/29 11:00:53;;;;;;;0.65;0.65;;;17.30;99.90;;;;;;4829133;29;20458;-84
2022/10/29 11:03:26;;;;;;;1.45;0.75;;;17.50;99.90;;;;;;4829519;29;20136;-84
2022/10/29 11:05:59;;;;;;;1.27;0.85;;;17.60;99.90;;;;;;4828876;29;20064;-84
2022/10/29 11:08:47;;;;;;;1.10;0.60;;;17.70;99.90;;;;;;4844953;29;20054;-85
2022/10/29 11:11:21;;;;;;;0.98;0.40;;;17.90;99.90;;;;;;4829314;29;20045;-84
2022/10/29 11:13:49;;;;;;;0.82;0.73;;;17.90;99.90;;;;;;4843821;29;20056;-84
2022/10/29 11:16:36;;;;;;;1.08;0.88;;;17.90;99.90;;;;;;4843591;29;20054;-86
2022/10/29 11:19:28;;;;;;;0.50;0.50;;;18.00;99.90;;;;;;4845442;29;20085;-84
2022/10/29 11:22:12;;;;;;;0.98;0.70;;;17.90;99.90;;;;;;4842357;29;20498;-83
2022/10/29 11:24:44;;;;;;;0.98;0.60;;;18.00;99.90;;;;;;4828767;29;20058;-86
2022/10/29 11:27:33;;;;;;;1.05;0.47;;;17.90;99.90;;;;;;4841520;29;20058;-83
2022/10/29 11:30:05;;;;;;;0.40;0.40;;;17.80;99.90;;;;;;4827056;29;20050;-83
2022/10/29 11:33:05;;;;;;;1.63;0.63;;;17.70;99.90;;;;;;4844411;29;20110;-83
2022/10/29 11:35:42;;;;;;;0.43;0.43;;;17.70;99.90;;;;;;4842264;29;20052;-83
2022/10/29 11:38:20;;;;;;;0.52;0.40;;;17.70;99.90;;;;;;4843012;29;20081;-83
2022/10/29 11:41:03;;;;;;;0.55;0.50;;;17.80;99.90;;;;;;4836135;29;20476;-84
2022/10/29 11:43:31;;;;;;;0.65;0.65;;;17.80;99.90;;;;;;4833769;29;20178;-84
2022/10/29 11:46:09;;;;;;;1.00;0.50;;;17.80;99.90;;;;;;4828821;29;20346;-83
2022/10/29 11:48:38;;;;;;;0.47;0.47;;;17.70;99.90;;;;;;4845355;29;20061;-88
2022/10/29 11:51:42;;;;;;;0.88;0.70;;;17.00;99.90;;;;;;4844082;29;20060;-84
2022/10/29 11:54:37;;;;;;;0.55;0.50;;;17.80;99.90;;;;;;4821072;29;20068;-86
2022/10/29 11:57:11;;;;;;;0.60;0.50;;;17.80;99.90;;;;;;4833611;29;20057;-87
2022/10/29 12:00:02;;;;;;;0.50;0.50;;;17.90;99.90;;;;;;4842868;29;20057;-84
2022/10/29 12:02:45;;;;;;;1.15;0.45;;;18.00;99.90;;;;;;4841456;29;20060;-86
2022/10/29 12:05:39;;;;;;;0.30;0.30;;;18.00;99.90;;;;;;4826665;29;20045;-85
2022/10/29 12:08:17;;;;;;;0.88;0.30;;;18.20;99.90;;;;;;4805215;29;20057;-84
2022/10/29 12:11:01;;;;;;;1.02;0.93;;;18.40;99.90;;;;;;4829252;29;20125;-82
2022/10/29 12:13:48;;;;;;;1.17;0.63;;;18.50;99.90;;;;;;4829634;29;20071;-82
2022/10/29 12:16:36;;;;;;;0.32;0.32;;;18.50;99.90;;;;;;4830529;29;20065;-82
2022/10/29 12:19:05;;;;;;;;;;;18.60;99.90;;;;;;4829605;29;20118;-82
2022/10/29 12:21:54;;;;;;;1.27;0.80;;;18.60;99.90;;;;;;4829927;29;19976;-83
2022/10/29 12:24:52;;;;;;;1.15;0.88;;;18.50;99.90;;;;;;4829572;29;20076;-83
2022/10/29 12:27:28;;;;;;;1.52;0.85;;;18.50;99.90;;;;;;4830520;29;20081;-83
2022/10/29 12:30:10;;;;;;;0.70;0.60;;;18.50;99.90;;;;;;4829425;29;20054;-83
2022/10/29 12:32:57;;;;;;;0.88;0.60;;;18.40;99.90;;;;;;4845404;29;20050;-83
2022/10/29 12:35:28;;;;;;;;;;;18.40;99.90;;;;;;4828983;29;20054;-83
2022/10/29 12:38:12;;;;;;;0.68;0.50;;;18.40;99.90;;;;;;4829886;29;20092;-83
2022/10/29 12:40:42;;;;;;;1.65;0.75;;;18.40;99.90;;;;;;4829066;29;20057;-83
2022/10/29 12:43:22;;;;;;;0.60;0.50;;;18.40;99.90;;;;;;4830110;29;20063;-82
2022/10/29 12:45:53;;;;;;;0.60;0.60;;;18.40;99.90;;;;;;4827465;29;20523;-83
2022/10/29 12:48:47;;;;;;;1.38;1.10;;;18.40;99.90;;;;;;4829543;29;20068;-83
2022/10/29 12:51:25;;;;;;;0.45;0.40;;;18.40;99.90;;;;;;4829112;29;20110;-82
2022/10/29 12:54:06;;;;;;;0.98;0.80;;;18.40;99.90;;;;;;4828294;29;20496;-83
2022/10/29 12:56:32;;;;;;;0.80;0.65;;;18.40;99.90;;;;;;4829045;29;20149;-83
2022/10/29 12:59:18;;;;;;;;;;;18.30;99.90;;;;;;4810904;29;20058;-83
2022/10/29 13:01:44;;;;;;;0.98;0.73;;;18.40;99.90;;;;;;4826544;29;19932;-83
2022/10/29 13:04:27;;;;;;;1.08;0.80;;;18.50;99.90;;;;;;4828808;29;20064;-83
2022/10/29 13:07:12;;;;;;;1.33;1.23;;;18.60;99.90;;;;;;4828501;29;20076;-83
2022/10/29 13:09:38;;;;;;;1.15;1.02;;;18.70;99.90;;;;;;4828708;29;20057;-83
2022/10/29 13:12:09;;;;;;;1.27;0.73;;;18.90;99.90;;;;;;4814271;29;20053;-83
2022/10/29 13:14:41;;;;;;;0.85;0.57;;;19.00;99.90;;;;;;4828653;29;20053;-83
2022/10/29 13:17:30;;;;;;;0.80;0.65;;;19.40;99.90;;;;;;4843300;29;20527;-83